sensor_id;sensor_type;location;lat;lon;timestamp;P1;durP1;ratioP1;P2;durP2;ratioP2
42886;SDS011;29032;56.028;92.904;2023-08-12T00:04:54;5.10;;;3.75;;
42886;SDS011;29032;56.028;92.904;2023-08-12T00:09:58;4.50;;;4.10;;
42886;SDS011;29032;56.028;92.904;2023-08-12T00:15:00;4.65;;;4.28;;
42886;SDS011;29032;56.028;92.904;2023-08-12T00:20:02;4.32;;;3.92;;
42886;SDS011;29032;56.028;92.904;2023-08-12T00:25:07;4.20;;;3.88;;
42886;SDS011;29032;56.028;92.904;2023-08-12T00:30:09;4.47;;;4.05;;
42886;SDS011;29032;56.028;92.904;2023-08-12T00:35:12;4.18;;;3.78;;
42886;SDS011;29032;56.028;92.904;2023-08-12T00:40:15;6.13;;;3.97;;
42886;SDS011;29032;56.028;92.904;2023-08-12T00:45:17;4.72;;;4.28;;
42886;SDS011;29032;56.028;92.904;2023-08-12T00:50:19;5.15;;;4.50;;
42886;SDS011;29032;56.028;92.904;2023-08-12T00:55:24;4.15;;;3.75;;
42886;SDS011;29032;56.028;92.904;2023-08-12T01:00:26;4.65;;;4.25;;
42886;SDS011;29032;56.028;92.904;2023-08-12T01:05:29;5.05;;;4.30;;
42886;SDS011;29032;56.028;92.904;2023-08-12T01:10:34;4.43;;;4.00;;
42886;SDS011;29032;56.028;92.904;2023-08-12T01:15:39;4.88;;;4.15;;
42886;SDS011;29032;56.028;92.904;2023-08-12T01:20:44;4.38;;;3.97;;
42886;SDS011;29032;56.028;92.904;2023-08-12T01:25:49;4.80;;;4.28;;
42886;SDS011;29032;56.028;92.904;2023-08-12T01:30:53;6.78;;;4.68;;
42886;SDS011;29032;56.028;92.904;2023-08-12T01:36:00;4.32;;;3.95;;
42886;SDS011;29032;56.028;92.904;2023-08-12T01:41:11;6.93;;;4.28;;
42886;SDS011;29032;56.028;92.904;2023-08-12T01:46:14;4.10;;;3.80;;
42886;SDS011;29032;56.028;92.904;2023-08-12T01:51:17;4.75;;;4.35;;
42886;SDS011;29032;56.028;92.904;2023-08-12T01:56:20;4.38;;;3.97;;
42886;SDS011;29032;56.028;92.904;2023-08-12T02:01:22;4.88;;;4.38;;
42886;SDS011;29032;56.028;92.904;2023-08-12T02:06:24;4.60;;;4.20;;
42886;SDS011;29032;56.028;92.904;2023-08-12T02:11:28;4.88;;;4.45;;
42886;SDS011;29032;56.028;92.904;2023-08-12T02:16:30;5.50;;;4.10;;
42886;SDS011;29032;56.028;92.904;2023-08-12T02:21:32;6.47;;;4.22;;
42886;SDS011;29032;56.028;92.904;2023-08-12T02:26:36;4.88;;;4.47;;
42886;SDS011;29032;56.028;92.904;2023-08-12T02:31:38;5.38;;;4.55;;
42886;SDS011;29032;56.028;92.904;2023-08-12T02:36:40;5.13;;;4.57;;
42886;SDS011;29032;56.028;92.904;2023-08-12T02:41:44;4.95;;;4.55;;
42886;SDS011;29032;56.028;92.904;2023-08-12T02:46:46;5.05;;;4.55;;
42886;SDS011;29032;56.028;92.904;2023-08-12T02:51:48;5.45;;;5.00;;
42886;SDS011;29032;56.028;92.904;2023-08-12T02:56:52;4.63;;;4.20;;
42886;SDS011;29032;56.028;92.904;2023-08-12T03:01:54;5.22;;;4.80;;
42886;SDS011;29032;56.028;92.904;2023-08-12T03:06:56;5.18;;;4.68;;
42886;SDS011;29032;56.028;92.904;2023-08-12T03:11:59;4.68;;;4.28;;
42886;SDS011;29032;56.028;92.904;2023-08-12T03:17:01;6.25;;;5.07;;
42886;SDS011;29032;56.028;92.904;2023-08-12T03:22:05;5.75;;;4.78;;
42886;SDS011;29032;56.028;92.904;2023-08-12T03:27:09;6.80;;;6.20;;
42886;SDS011;29032;56.028;92.904;2023-08-12T03:32:12;8.35;;;7.18;;
42886;SDS011;29032;56.028;92.904;2023-08-12T03:37:14;7.25;;;6.55;;
42886;SDS011;29032;56.028;92.904;2023-08-12T03:42:18;6.72;;;5.68;;
42886;SDS011;29032;56.028;92.904;2023-08-12T03:47:21;9.85;;;8.18;;
42886;SDS011;29032;56.028;92.904;2023-08-12T03:52:23;8.90;;;6.78;;
42886;SDS011;29032;56.028;92.904;2023-08-12T03:57:27;7.28;;;6.30;;
42886;SDS011;29032;56.028;92.904;2023-08-12T04:02:30;11.27;;;7.50;;
42886;SDS011;29032;56.028;92.904;2023-08-12T04:07:32;8.38;;;7.32;;
42886;SDS011;29032;56.028;92.904;2023-08-12T04:12:38;8.85;;;7.70;;
42886;SDS011;29032;56.028;92.904;2023-08-12T04:17:41;7.53;;;6.83;;
42886;SDS011;29032;56.028;92.904;2023-08-12T04:22:43;10.02;;;7.20;;
42886;SDS011;29032;56.028;92.904;2023-08-12T04:27:48;10.10;;;6.80;;
42886;SDS011;29032;56.028;92.904;2023-08-12T04:32:51;9.45;;;6.20;;
42886;SDS011;29032;56.028;92.904;2023-08-12T04:37:53;14.10;;;6.43;;
42886;SDS011;29032;56.028;92.904;2023-08-12T04:42:58;7.85;;;4.93;;
42886;SDS011;29032;56.028;92.904;2023-08-12T04:48:00;7.35;;;4.75;;
42886;SDS011;29032;56.028;92.904;2023-08-12T04:53:04;3.78;;;3.47;;
42886;SDS011;29032;56.028;92.904;2023-08-12T04:58:08;4.22;;;3.70;;
42886;SDS011;29032;56.028;92.904;2023-08-12T05:03:12;4.43;;;4.03;;
42886;SDS011;29032;56.028;92.904;2023-08-12T05:08:14;5.30;;;4.18;;
42886;SDS011;29032;56.028;92.904;2023-08-12T05:13:18;4.78;;;4.28;;
42886;SDS011;29032;56.028;92.904;2023-08-12T05:18:21;4.22;;;3.83;;
42886;SDS011;29032;56.028;92.904;2023-08-12T05:23:23;6.47;;;4.93;;
42886;SDS011;29032;56.028;92.904;2023-08-12T05:28:27;5.65;;;4.95;;
42886;SDS011;29032;56.028;92.904;2023-08-12T05:33:28;5.88;;;4.80;;
42886;SDS011;29032;56.028;92.904;2023-08-12T05:38:30;6.72;;;5.95;;
42886;SDS011;29032;56.028;92.904;2023-08-12T05:43:34;7.53;;;6.82;;
42886;SDS011;29032;56.028;92.904;2023-08-12T05:48:36;6.60;;;6.00;;
42886;SDS011;29032;56.028;92.904;2023-08-12T05:53:38;7.85;;;6.20;;
42886;SDS011;29032;56.028;92.904;2023-08-12T05:58:41;6.30;;;5.70;;
42886;SDS011;29032;56.028;92.904;2023-08-12T06:03:43;6.82;;;6.13;;
42886;SDS011;29032;56.028;92.904;2023-08-12T06:08:45;7.70;;;6.90;;
42886;SDS011;29032;56.028;92.904;2023-08-12T06:13:49;8.10;;;7.30;;
42886;SDS011;29032;56.028;92.904;2023-08-12T06:18:51;8.25;;;6.93;;
42886;SDS011;29032;56.028;92.904;2023-08-12T06:23:53;7.75;;;7.05;;
42886;SDS011;29032;56.028;92.904;2023-08-12T06:28:56;8.40;;;6.63;;
42886;SDS011;29032;56.028;92.904;2023-08-12T06:33:58;7.38;;;6.57;;
42886;SDS011;29032;56.028;92.904;2023-08-12T06:39:00;8.90;;;6.95;;
42886;SDS011;29032;56.028;92.904;2023-08-12T06:44:04;8.00;;;7.22;;
42886;SDS011;29032;56.028;92.904;2023-08-12T06:49:07;8.63;;;7.30;;
42886;SDS011;29032;56.028;92.904;2023-08-12T06:54:09;8.52;;;7.63;;
42886;SDS011;29032;56.028;92.904;2023-08-12T06:59:12;11.73;;;7.53;;
42886;SDS011;29032;56.028;92.904;2023-08-12T07:04:14;9.00;;;7.78;;
42886;SDS011;29032;56.028;92.904;2023-08-12T07:09:16;11.80;;;7.65;;
42886;SDS011;29032;56.028;92.904;2023-08-12T07:14:20;9.88;;;7.43;;
42886;SDS011;29032;56.028;92.904;2023-08-12T07:19:22;8.77;;;7.10;;
42886;SDS011;29032;56.028;92.904;2023-08-12T07:24:24;8.82;;;7.38;;
42886;SDS011;29032;56.028;92.904;2023-08-12T07:29:27;10.27;;;7.40;;
42886;SDS011;29032;56.028;92.904;2023-08-12T07:34:29;8.00;;;7.15;;
42886;SDS011;29032;56.028;92.904;2023-08-12T07:39:31;9.77;;;8.05;;
42886;SDS011;29032;56.028;92.904;2023-08-12T07:44:35;7.88;;;7.18;;
42886;SDS011;29032;56.028;92.904;2023-08-12T07:49:37;9.77;;;8.30;;
42886;SDS011;29032;56.028;92.904;2023-08-12T07:54:40;11.90;;;8.13;;
42886;SDS011;29032;56.028;92.904;2023-08-12T07:59:43;10.25;;;8.02;;
42886;SDS011;29032;56.028;92.904;2023-08-12T08:04:45;9.38;;;8.50;;
42886;SDS011;29032;56.028;92.904;2023-08-12T08:09:47;13.65;;;8.35;;
42886;SDS011;29032;56.028;92.904;2023-08-12T08:14:51;10.93;;;7.80;;
42886;SDS011;29032;56.028;92.904;2023-08-12T08:19:53;12.63;;;7.78;;
42886;SDS011;29032;56.028;92.904;2023-08-12T08:24:55;7.93;;;7.13;;
42886;SDS011;29032;56.028;92.904;2023-08-12T08:29:58;8.95;;;7.50;;
42886;SDS011;29032;56.028;92.904;2023-08-12T08:35:00;11.15;;;7.30;;
42886;SDS011;29032;56.028;92.904;2023-08-12T08:40:02;10.05;;;7.57;;
42886;SDS011;29032;56.028;92.904;2023-08-12T08:45:08;7.57;;;6.68;;
42886;SDS011;29032;56.028;92.904;2023-08-12T08:50:14;9.23;;;7.20;;
42886;SDS011;29032;56.028;92.904;2023-08-12T08:55:16;13.13;;;7.00;;
42886;SDS011;29032;56.028;92.904;2023-08-12T09:00:20;10.57;;;6.88;;
42886;SDS011;29032;56.028;92.904;2023-08-12T09:05:22;9.10;;;6.32;;
42886;SDS011;29032;56.028;92.904;2023-08-12T09:10:25;9.90;;;5.93;;
42886;SDS011;29032;56.028;92.904;2023-08-12T09:15:30;7.57;;;5.75;;
42886;SDS011;29032;56.028;92.904;2023-08-12T09:20:32;8.25;;;5.88;;
42886;SDS011;29032;56.028;92.904;2023-08-12T09:25:34;12.15;;;6.50;;
42886;SDS011;29032;56.028;92.904;2023-08-12T09:30:38;9.02;;;5.97;;
42886;SDS011;29032;56.028;92.904;2023-08-12T09:35:41;9.93;;;6.05;;
42886;SDS011;29032;56.028;92.904;2023-08-12T09:40:43;9.30;;;6.40;;
42886;SDS011;29032;56.028;92.904;2023-08-12T09:45:49;8.63;;;5.50;;
42886;SDS011;29032;56.028;92.904;2023-08-12T09:50:51;9.63;;;5.22;;
42886;SDS011;29032;56.028;92.904;2023-08-12T09:55:53;5.93;;;5.22;;
42886;SDS011;29032;56.028;92.904;2023-08-12T10:01:00;7.75;;;5.32;;
42886;SDS011;29032;56.028;92.904;2023-08-12T10:06:03;5.90;;;5.30;;
42886;SDS011;29032;56.028;92.904;2023-08-12T10:11:06;5.50;;;5.00;;
42886;SDS011;29032;56.028;92.904;2023-08-12T10:16:10;6.55;;;5.07;;
42886;SDS011;29032;56.028;92.904;2023-08-12T10:21:12;5.88;;;5.03;;
42886;SDS011;29032;56.028;92.904;2023-08-12T10:26:15;7.25;;;5.50;;
42886;SDS011;29032;56.028;92.904;2023-08-12T10:31:20;7.20;;;4.97;;
42886;SDS011;29032;56.028;92.904;2023-08-12T10:36:22;9.35;;;4.90;;
42886;SDS011;29032;56.028;92.904;2023-08-12T10:41:24;5.50;;;4.97;;
42886;SDS011;29032;56.028;92.904;2023-08-12T10:46:32;7.07;;;4.90;;
42886;SDS011;29032;56.028;92.904;2023-08-12T10:51:41;8.20;;;4.93;;
42886;SDS011;29032;56.028;92.904;2023-08-12T10:57:04;7.68;;;5.10;;
42886;SDS011;29032;56.028;92.904;2023-08-12T11:02:11;5.45;;;4.30;;
42886;SDS011;29032;56.028;92.904;2023-08-12T11:07:17;6.13;;;4.70;;
42886;SDS011;29032;56.028;92.904;2023-08-12T11:12:30;6.93;;;4.97;;
42886;SDS011;29032;56.028;92.904;2023-08-12T11:17:35;8.60;;;4.75;;
42886;SDS011;29032;56.028;92.904;2023-08-12T11:22:39;5.40;;;4.90;;
42886;SDS011;29032;56.028;92.904;2023-08-12T11:27:42;9.15;;;5.45;;
42886;SDS011;29032;56.028;92.904;2023-08-12T11:32:47;5.30;;;4.57;;
42886;SDS011;29032;56.028;92.904;2023-08-12T11:37:50;9.37;;;6.73;;
42886;SDS011;29032;56.028;92.904;2023-08-12T11:42:53;8.18;;;6.13;;
42886;SDS011;29032;56.028;92.904;2023-08-12T11:47:57;7.13;;;4.63;;
42886;SDS011;29032;56.028;92.904;2023-08-12T11:52:59;6.53;;;4.35;;
42886;SDS011;29032;56.028;92.904;2023-08-12T11:58:02;11.10;;;5.03;;
42886;SDS011;29032;56.028;92.904;2023-08-12T12:03:06;5.97;;;4.30;;
42886;SDS011;29032;56.028;92.904;2023-08-12T12:08:08;5.50;;;4.72;;
42886;SDS011;29032;56.028;92.904;2023-08-12T12:13:10;8.65;;;5.15;;
42886;SDS011;29032;56.028;92.904;2023-08-12T12:18:14;7.65;;;4.97;;
42886;SDS011;29032;56.028;92.904;2023-08-12T12:23:17;11.23;;;6.03;;
42886;SDS011;29032;56.028;92.904;2023-08-12T12:28:19;8.57;;;4.65;;
42886;SDS011;29032;56.028;92.904;2023-08-12T12:33:22;6.03;;;4.78;;
42886;SDS011;29032;56.028;92.904;2023-08-12T12:38:24;7.68;;;5.45;;
42886;SDS011;29032;56.028;92.904;2023-08-12T12:43:26;9.05;;;5.13;;
42886;SDS011;29032;56.028;92.904;2023-08-12T12:48:30;7.43;;;4.68;;
42886;SDS011;29032;56.028;92.904;2023-08-12T12:53:32;5.55;;;4.93;;
42886;SDS011;29032;56.028;92.904;2023-08-12T12:58:34;7.82;;;4.95;;
42886;SDS011;29032;56.028;92.904;2023-08-12T13:03:38;6.50;;;5.13;;
42886;SDS011;29032;56.028;92.904;2023-08-12T13:08:40;9.40;;;5.00;;
42886;SDS011;29032;56.028;92.904;2023-08-12T13:13:42;7.47;;;5.00;;
42886;SDS011;29032;56.028;92.904;2023-08-12T13:18:45;6.95;;;5.00;;
42886;SDS011;29032;56.028;92.904;2023-08-12T13:23:47;8.35;;;4.47;;
42886;SDS011;29032;56.028;92.904;2023-08-12T13:28:49;6.15;;;5.55;;
42886;SDS011;29032;56.028;92.904;2023-08-12T13:33:53;9.80;;;5.90;;
42886;SDS011;29032;56.028;92.904;2023-08-12T13:38:55;5.68;;;5.07;;
42886;SDS011;29032;56.028;92.904;2023-08-12T13:43:57;10.30;;;5.40;;
42886;SDS011;29032;56.028;92.904;2023-08-12T13:49:00;6.95;;;5.50;;
42886;SDS011;29032;56.028;92.904;2023-08-12T13:54:03;7.10;;;5.25;;
42886;SDS011;29032;56.028;92.904;2023-08-12T13:59:05;9.50;;;5.28;;
42886;SDS011;29032;56.028;92.904;2023-08-12T14:04:09;7.72;;;5.93;;
42886;SDS011;29032;56.028;92.904;2023-08-12T14:09:11;9.13;;;5.38;;
42886;SDS011;29032;56.028;92.904;2023-08-12T14:14:13;7.38;;;5.68;;
42886;SDS011;29032;56.028;92.904;2023-08-12T14:19:16;10.25;;;5.90;;
42886;SDS011;29032;56.028;92.904;2023-08-12T14:24:18;8.77;;;5.90;;
42886;SDS011;29032;56.028;92.904;2023-08-12T14:29:20;10.52;;;5.93;;
42886;SDS011;29032;56.028;92.904;2023-08-12T14:34:24;9.80;;;5.68;;
42886;SDS011;29032;56.028;92.904;2023-08-12T14:39:26;9.90;;;5.75;;
42886;SDS011;29032;56.028;92.904;2023-08-12T14:44:28;8.45;;;5.88;;
42886;SDS011;29032;56.028;92.904;2023-08-12T14:49:31;7.25;;;5.70;;
42886;SDS011;29032;56.028;92.904;2023-08-12T14:54:33;9.48;;;5.18;;
42886;SDS011;29032;56.028;92.904;2023-08-12T14:59:35;7.10;;;6.40;;
42886;SDS011;29032;56.028;92.904;2023-08-12T15:04:39;11.70;;;5.97;;
42886;SDS011;29032;56.028;92.904;2023-08-12T15:09:41;8.35;;;6.50;;
42886;SDS011;29032;56.028;92.904;2023-08-12T15:14:43;7.30;;;6.07;;
42886;SDS011;29032;56.028;92.904;2023-08-12T15:19:47;11.98;;;6.57;;
42886;SDS011;29032;56.028;92.904;2023-08-12T15:24:49;8.02;;;6.80;;
42886;SDS011;29032;56.028;92.904;2023-08-12T15:29:51;7.57;;;6.80;;
42886;SDS011;29032;56.028;92.904;2023-08-12T15:34:54;8.90;;;8.00;;
42886;SDS011;29032;56.028;92.904;2023-08-12T15:39:56;14.07;;;10.13;;
42886;SDS011;29032;56.028;92.904;2023-08-12T15:44:58;13.07;;;6.25;;
42886;SDS011;29032;56.028;92.904;2023-08-12T15:50:02;4.18;;;3.72;;
42886;SDS011;29032;56.028;92.904;2023-08-12T15:55:05;5.13;;;3.33;;
42886;SDS011;29032;56.028;92.904;2023-08-12T16:00:07;5.72;;;2.53;;
42886;SDS011;29032;56.028;92.904;2023-08-12T16:05:12;2.83;;;2.20;;
42886;SDS011;29032;56.028;92.904;2023-08-12T16:10:14;4.25;;;2.30;;
42886;SDS011;29032;56.028;92.904;2023-08-12T16:15:16;3.47;;;2.15;;
42886;SDS011;29032;56.028;92.904;2023-08-12T16:20:19;3.60;;;1.90;;
42886;SDS011;29032;56.028;92.904;2023-08-12T16:25:21;4.10;;;1.98;;
42886;SDS011;29032;56.028;92.904;2023-08-12T16:30:24;1.77;;;1.60;;
42886;SDS011;29032;56.028;92.904;2023-08-12T16:35:27;3.17;;;1.70;;
42886;SDS011;29032;56.028;92.904;2023-08-12T16:40:29;2.78;;;1.60;;
42886;SDS011;29032;56.028;92.904;2023-08-12T16:45:31;2.30;;;1.50;;
42886;SDS011;29032;56.028;92.904;2023-08-12T16:50:35;2.22;;;1.65;;
42886;SDS011;29032;56.028;92.904;2023-08-12T16:55:37;1.50;;;1.40;;
42886;SDS011;29032;56.028;92.904;2023-08-12T17:00:39;2.15;;;1.45;;
42886;SDS011;29032;56.028;92.904;2023-08-12T17:05:42;3.42;;;1.70;;
42886;SDS011;29032;56.028;92.904;2023-08-12T17:10:44;1.65;;;1.35;;
42886;SDS011;29032;56.028;92.904;2023-08-12T17:15:46;3.10;;;1.48;;
42886;SDS011;29032;56.028;92.904;2023-08-12T17:20:49;2.70;;;1.70;;
42886;SDS011;29032;56.028;92.904;2023-08-12T17:25:51;4.28;;;2.10;;
42886;SDS011;29032;56.028;92.904;2023-08-12T17:30:53;2.47;;;2.10;;
42886;SDS011;29032;56.028;92.904;2023-08-12T17:35:57;1.88;;;1.58;;
42886;SDS011;29032;56.028;92.904;2023-08-12T17:40:59;2.47;;;1.60;;
42886;SDS011;29032;56.028;92.904;2023-08-12T17:46:01;4.53;;;1.70;;
42886;SDS011;29032;56.028;92.904;2023-08-12T17:51:05;2.17;;;1.60;;
42886;SDS011;29032;56.028;92.904;2023-08-12T17:56:07;2.85;;;1.50;;
42886;SDS011;29032;56.028;92.904;2023-08-12T18:01:09;2.22;;;1.40;;
42886;SDS011;29032;56.028;92.904;2023-08-12T18:06:13;2.08;;;1.50;;
42886;SDS011;29032;56.028;92.904;2023-08-12T18:11:15;14.15;;;10.90;;
42886;SDS011;29032;56.028;92.904;2023-08-12T18:16:17;5.93;;;3.28;;
42886;SDS011;29032;56.028;92.904;2023-08-12T18:21:20;2.10;;;1.90;;
42886;SDS011;29032;56.028;92.904;2023-08-12T18:26:22;1.80;;;1.52;;
42886;SDS011;29032;56.028;92.904;2023-08-12T18:31:24;1.77;;;1.48;;
42886;SDS011;29032;56.028;92.904;2023-08-12T18:36:28;1.52;;;1.27;;
42886;SDS011;29032;56.028;92.904;2023-08-12T18:41:30;1.65;;;1.23;;
42886;SDS011;29032;56.028;92.904;2023-08-12T18:46:32;3.03;;;1.40;;
42886;SDS011;29032;56.028;92.904;2023-08-12T18:51:35;2.33;;;1.35;;
42886;SDS011;29032;56.028;92.904;2023-08-12T18:56:37;1.52;;;1.38;;
42886;SDS011;29032;56.028;92.904;2023-08-12T19:01:39;2.15;;;1.20;;
42886;SDS011;29032;56.028;92.904;2023-08-12T19:06:43;1.58;;;1.23;;
42886;SDS011;29032;56.028;92.904;2023-08-12T19:11:45;1.85;;;1.20;;
42886;SDS011;29032;56.028;92.904;2023-08-12T19:16:47;3.03;;;1.42;;
42886;SDS011;29032;56.028;92.904;2023-08-12T19:21:50;1.33;;;1.20;;
42886;SDS011;29032;56.028;92.904;2023-08-12T19:26:52;2.25;;;1.20;;
42886;SDS011;29032;56.028;92.904;2023-08-12T19:31:54;2.00;;;1.48;;
42886;SDS011;29032;56.028;92.904;2023-08-12T19:36:58;1.92;;;1.40;;
42886;SDS011;29032;56.028;92.904;2023-08-12T19:42:00;2.78;;;1.33;;
42886;SDS011;29032;56.028;92.904;2023-08-12T19:47:02;1.65;;;1.15;;
42886;SDS011;29032;56.028;92.904;2023-08-12T19:52:06;3.25;;;1.40;;
42886;SDS011;29032;56.028;92.904;2023-08-12T19:57:08;1.50;;;1.40;;
42886;SDS011;29032;56.028;92.904;2023-08-12T20:02:10;2.38;;;1.30;;
42886;SDS011;29032;56.028;92.904;2023-08-12T20:07:13;1.30;;;1.20;;
42886;SDS011;29032;56.028;92.904;2023-08-12T20:12:15;1.80;;;1.30;;
42886;SDS011;29032;56.028;92.904;2023-08-12T20:17:17;1.73;;;1.08;;
42886;SDS011;29032;56.028;92.904;2023-08-12T20:22:21;1.75;;;1.17;;
42886;SDS011;29032;56.028;92.904;2023-08-12T20:27:23;1.65;;;1.02;;
42886;SDS011;29032;56.028;92.904;2023-08-12T20:32:24;3.55;;;1.23;;
42886;SDS011;29032;56.028;92.904;2023-08-12T20:37:28;1.30;;;1.20;;
42886;SDS011;29032;56.028;92.904;2023-08-12T20:42:31;1.35;;;1.20;;
42886;SDS011;29032;56.028;92.904;2023-08-12T20:47:33;1.85;;;1.27;;
42886;SDS011;29032;56.028;92.904;2023-08-12T20:52:37;1.00;;;1.00;;
42886;SDS011;29032;56.028;92.904;2023-08-12T20:57:39;2.42;;;1.45;;
42886;SDS011;29032;56.028;92.904;2023-08-12T21:02:41;1.50;;;1.40;;
42886;SDS011;29032;56.028;92.904;2023-08-12T21:07:45;1.35;;;1.20;;
42886;SDS011;29032;56.028;92.904;2023-08-12T21:12:47;1.40;;;1.30;;
42886;SDS011;29032;56.028;92.904;2023-08-12T21:17:49;1.38;;;1.15;;
42886;SDS011;29032;56.028;92.904;2023-08-12T21:22:55;2.55;;;1.27;;
42886;SDS011;29032;56.028;92.904;2023-08-12T21:27:57;2.75;;;1.20;;
42886;SDS011;29032;56.028;92.904;2023-08-12T21:32:59;2.40;;;1.40;;
42886;SDS011;29032;56.028;92.904;2023-08-12T21:38:02;1.45;;;1.30;;
42886;SDS011;29032;56.028;92.904;2023-08-12T21:43:05;1.77;;;1.40;;
42886;SDS011;29032;56.028;92.904;2023-08-12T21:48:07;2.65;;;1.20;;
42886;SDS011;29032;56.028;92.904;2023-08-12T21:53:10;1.58;;;1.35;;
42886;SDS011;29032;56.028;92.904;2023-08-12T21:58:12;1.48;;;1.38;;
42886;SDS011;29032;56.028;92.904;2023-08-12T22:03:14;2.45;;;1.30;;
42886;SDS011;29032;56.028;92.904;2023-08-12T22:08:18;1.52;;;1.42;;
42886;SDS011;29032;56.028;92.904;2023-08-12T22:13:20;4.28;;;1.33;;
42886;SDS011;29032;56.028;92.904;2023-08-12T22:18:22;1.55;;;1.45;;
42886;SDS011;29032;56.028;92.904;2023-08-12T22:23:26;1.58;;;1.40;;
42886;SDS011;29032;56.028;92.904;2023-08-12T22:28:28;1.20;;;1.10;;
42886;SDS011;29032;56.028;92.904;2023-08-12T22:33:30;1.52;;;1.38;;
42886;SDS011;29032;56.028;92.904;2023-08-12T22:38:33;1.90;;;1.38;;
42886;SDS011;29032;56.028;92.904;2023-08-12T22:43:35;1.40;;;1.30;;
42886;SDS011;29032;56.028;92.904;2023-08-12T22:48:38;2.72;;;1.20;;
42886;SDS011;29032;56.028;92.904;2023-08-12T22:53:41;1.83;;;1.20;;
42886;SDS011;29032;56.028;92.904;2023-08-12T22:58:44;3.22;;;1.65;;
42886;SDS011;29032;56.028;92.904;2023-08-12T23:03:46;2.40;;;1.73;;
42886;SDS011;29032;56.028;92.904;2023-08-12T23:08:49;2.55;;;1.50;;
42886;SDS011;29032;56.028;92.904;2023-08-12T23:13:51;2.70;;;1.60;;
42886;SDS011;29032;56.028;92.904;2023-08-12T23:18:53;3.42;;;1.50;;
42886;SDS011;29032;56.028;92.904;2023-08-12T23:23:57;2.75;;;1.42;;
42886;SDS011;29032;56.028;92.904;2023-08-12T23:28:59;2.53;;;1.42;;
42886;SDS011;29032;56.028;92.904;2023-08-12T23:34:01;1.80;;;1.45;;
42886;SDS011;29032;56.028;92.904;2023-08-12T23:39:04;3.47;;;1.63;;
42886;SDS011;29032;56.028;92.904;2023-08-12T23:44:06;2.92;;;1.60;;
42886;SDS011;29032;56.028;92.904;2023-08-12T23:49:08;3.95;;;1.70;;
42886;SDS011;29032;56.028;92.904;2023-08-12T23:54:12;4.50;;;2.40;;
42886;SDS011;29032;56.028;92.904;2023-08-12T23:59:14;2.70;;;1.70;;
